N1IJV-10 Weather Reports


Display with metric or nautical units.
time (UTC)temp
F
wind
direction
speed
MPH
gust
MPH
rain 1hr
in
rain 24hr
in
rain mn
in
humidity
%
barometer
mb
20220924183248 66 152 2.0 3.0 0.00 0.01 0.01 72 1009.3
20220924182748 65 164 3.0 5.0 0.00 0.01 0.01 70 1009.4
20220924182248 66 84 2.0 5.0 0.00 0.01 0.01 70 1009.6
20220924181748 66 196 3.0 6.0 0.00 0.01 0.01 70 1009.5
20220924181246 66 154 1.0 5.0 0.00 0.01 0.01 70 1009.7
20220924180745 65 144 3.0 5.0 0.00 0.01 0.01 70 1009.8
20220924180244 66 134 1.0 2.0 0.00 0.01 0.01 70 1009.8
20220924175743 66 287 2.0 5.0 0.00 0.01 0.01 68 1009.8
20220924175242 66 123 2.0 3.0 0.00 0.01 0.01 68 1010.0
20220924174740 66 125 3.0 5.0 0.00 0.01 0.01 69 1010.0
20220924174239 66 85 3.0 6.0 0.00 0.01 0.01 68 1009.9
20220924173736 67 280 4.0 5.0 0.00 0.01 0.01 68 1010.0
20220924173234 66 210 1.0 3.0 0.00 0.01 0.01 68 1010.0
20220924172733 66 269 2.0 3.0 0.00 0.01 0.01 70 1010.0
20220924172233 66 173 2.0 3.0 0.00 0.01 0.01 70 1010.1
20220924171731 65 218 4.0 5.0 0.00 0.01 0.01 70 1010.1
20220924171231 66 315 1.0 3.0 0.00 0.01 0.01 69 1010.1
20220924170729 65 309 1.0 2.0 0.00 0.01 0.01 73 1010.1
20220924170228 64 98 0.0 2.0 0.00 0.01 0.01 72 1010.5
20220924165727 63 116 1.0 2.0 0.00 0.01 0.01 73 1010.5
20220924165225 63 143 5.0 6.0 0.00 0.01 0.01 73 1010.6
20220924164723 63 182 2.0 3.0 0.00 0.01 0.01 74 1010.7
20220924164222 61 178 3.0 3.0 0.00 0.01 0.01 76 1010.7
20220924163722 61 178 2.0 3.0 0.00 0.01 0.01 77 1011.2
20220924163222 60 126 1.0 3.0 0.00 0.01 0.01 77 1010.9
20220924162721 60 245 1.0 2.0 0.00 0.01 0.01 78 1010.9
20220924162219 61 275 1.0 3.0 0.00 0.01 0.01 78 1011.2
20220924161718 60 332 2.0 3.0 0.00 0.01 0.01 78 1011.1
20220924161218 61 43 1.0 1.0 0.00 0.01 0.01 78 1011.3
20220924160718 61 97 0.0 2.0 0.00 0.01 0.01 78 1011.4
20220924160218 60 186 2.0 3.0 0.00 0.01 0.01 78 1011.4
20220924155716 60 108 2.0 3.0 0.00 0.01 0.01 77 1011.6
20220924155214 60 128 1.0 2.0 0.00 0.01 0.01 78 1011.5
20220924154712 60 318 3.0 3.0 0.00 0.01 0.01 79 1011.3
20220924154211 59 225 2.0 5.0 0.00 0.01 0.01 79 1011.6
20220924153709 59 270 3.0 5.0 0.00 0.01 0.01 79 1011.5
20220924153207 59 149 2.0 5.0 0.00 0.01 0.01 79 1011.5
20220924152707 59 135 2.0 3.0 0.00 0.01 0.01 79 1011.6
20220924152207 58 239 3.0 3.0 0.00 0.01 0.01 80 1011.4
20220924151706 58 228 2.0 3.0 0.00 0.01 0.01 80 1011.6
20220924151205 58 147 2.0 5.0 0.00 0.01 0.01 81 1011.6
20220924150703 57 141 2.0 6.0 0.00 0.01 0.01 80 1012.1
20220924150203 57 194 3.0 6.0 0.00 0.01 0.01 81 1011.6
20220924145702 57 135 0.0 6.0 0.00 0.01 0.01 82 1011.9
20220924145201 57 123 2.0 6.0 0.00 0.01 0.01 81 1011.8
20220924144659 57 95 2.0 5.0 0.00 0.01 0.01 82 1012.1
20220924144159 57 325 1.0 3.0 0.00 0.01 0.01 82 1011.6
20220924143658 57 286 3.0 5.0 0.00 0.01 0.01 82 1011.9
20220924143156 57 189 3.0 6.0 0.00 0.01 0.01 81 1011.9
20220924142653 57 222 3.0 5.0 0.00 0.01 0.01 81 1011.8
20220924142152 57 197 2.0 3.0 0.00 0.01 0.01 82 1011.8
20220924141650 57 108 2.0 6.0 0.00 0.01 0.01 81 1011.6
20220924141151 56 79 1.0 5.0 0.00 0.01 0.01 82 1011.8
20220924140650 56 134 4.0 5.0 0.00 0.01 0.01 82 1011.9
20220924140150 56 205 2.0 3.0 0.00 0.01 0.01 83 1011.8
20220924135649 56 237 3.0 6.0 0.00 0.01 0.01 83 1011.8
20220924135147 56 265 1.0 5.0 0.00 0.01 0.01 82 1011.6
20220924134647 56 278 2.0 3.0 0.00 0.01 0.01 83 1011.8
20220924134146 55 207 1.0 2.0 0.00 0.01 0.01 84 1011.9
20220924133645 55 219 1.0 5.0 0.00 0.01 0.01 84 1011.8
20220924133145 55 263 1.0 2.0 0.00 0.01 0.01 85 1012.1
20220924132645 55 131 1.0 2.0 0.00 0.01 0.01 85 1012.1
20220924132144 54 176 2.0 2.0 0.00 0.01 0.01 85 1012.2
20220924131642 55 244 3.0 5.0 0.00 0.01 0.01 85 1012.2
20220924131140 54 105 0.0 3.0 0.00 0.01 0.01 85 1012.2
20220924130639 54 145 1.0 3.0 0.00 0.01 0.01 85 1012.2
20220924130137 54 174 1.0 2.0 0.00 0.01 0.01 85 1012.4
20220924125636 54 176 3.0 3.0 0.00 0.01 0.01 85 1012.2
20220924125136 54 7 1.0 2.0 0.00 0.01 0.01 85 1012.2
20220924124634 54 138 1.0 1.0 0.00 0.01 0.01 86 1012.2
20220924124132 54 276 2.0 2.0 0.00 0.01 0.01 86 1012.3
20220924123632 53 164 1.0 2.0 0.00 0.01 0.01 86 1012.4
20220924123132 53 102 0.0 1.0 0.00 0.01 0.01 86 1012.4
20220924122629 53 293 1.0 2.0 0.00 0.01 0.01 86 1012.5
20220924122127 53 196 1.0 1.0 0.00 0.01 0.01 86 1012.5
20220924121626 53 138 1.0 2.0 0.00 0.01 0.01 86 1012.7
20220924121126 53 117 1.0 3.0 0.00 0.01 0.01 86 1012.5
20220924120625 53 99 1.0 2.0 0.00 0.01 0.01 87 1012.3
20220924120125 53 268 1.0 3.0 0.00 0.01 0.01 87 1012.5
20220924115624 53 117 0.0 0.0 0.00 0.01 0.01 87 1012.5
20220924115124 53 81 0.0 2.0 0.00 0.01 0.01 88 1012.6
20220924114623 53 99 0.0 0.0 0.00 0.01 0.01 87 1012.7
20220924114122 53 108 0.0 1.0 0.00 0.01 0.01 87 1012.5
20220924113621 53 91 0.0 2.0 0.00 0.01 0.01 88 1012.5
20220924113120 53 161 1.0 2.0 0.00 0.01 0.01 88 1012.5
20220924112620 53 101 0.0 1.0 0.00 0.01 0.01 88 1012.4
20220924112118 53 118 1.0 1.0 0.00 0.01 0.01 88 1012.7
20220924111616 53 98 0.0 2.0 0.00 0.01 0.01 88 1012.6
20220924111115 53 100 0.0 0.0 0.00 0.01 0.01 88 1012.5
20220924110613 53 162 1.0 1.0 0.00 0.01 0.01 88 1012.6
20220924110112 53 114 0.0 1.0 0.00 0.01 0.01 88 1012.8
20220924105610 53 131 2.0 2.0 0.00 0.01 0.01 88 1012.6
20220924105110 53 166 1.0 1.0 0.00 0.01 0.01 88 1012.7
20220924104610 53 89 1.0 2.0 0.00 0.01 0.01 88 1013.0
20220924104109 53 139 2.0 2.0 0.00 0.01 0.01 88 1012.8
20220924103609 53 97 0.0 2.0 0.00 0.01 0.01 89 1012.8
20220924103108 52 86 2.0 3.0 0.00 0.01 0.01 89 1013.0
20220924102606 52 93 0.0 1.0 0.00 0.01 0.01 91 1012.9
20220924102105 52 96 0.0 0.0 0.00 0.01 0.01 92 1012.6
20220924101605 52 94 0.0 0.0 0.00 0.01 0.01 92 1012.7
20220924101104 52 102 0.0 0.0 0.00 0.01 0.01 92 1012.8
20220924100602 52 82 0.0 1.0 0.00 0.01 0.01 93 1012.6
20220924100101 52 90 0.0 2.0 0.00 0.01 0.01 93 1012.7
20220924095601 52 65 1.0 1.0 0.00 0.01 0.01 94 1012.9
20220924095100 52 96 0.0 1.0 0.00 0.01 0.01 94 1012.7
20220924094559 52 122 0.0 2.0 0.00 0.01 0.01 95 1013.0
20220924094058 52 111 0.0 1.0 0.00 0.01 0.01 95 1012.8
20220924093556 52 88 0.0 1.0 0.00 0.01 0.01 95 1012.9
20220924093056 52 94 0.0 2.0 0.00 0.01 0.01 95 1012.9
20220924092554 52 110 1.0 2.0 0.00 0.01 0.01 96 1013.2
20220924092053 52 90 0.0 1.0 0.00 0.01 0.01 96 1012.9
20220924091551 52 90 0.0 2.0 0.00 0.01 0.01 96 1013.0
20220924091052 52 88 0.0 1.0 0.00 0.01 0.01 96 1012.9
20220924090550 52 94 1.0 2.0 0.00 0.01 0.01 96 1012.9
20220924090049 52 89 0.0 1.0 0.00 0.01 0.01 96 1012.9
20220924085547 52 132 0.0 1.0 0.00 0.01 0.01 96 1012.9
20220924085046 52 99 1.0 2.0 0.00 0.01 0.01 96 1013.3
20220924084546 52 75 0.0 2.0 0.00 0.01 0.01 97 1013.2
20220924084045 52 70 1.0 3.0 0.00 0.01 0.01 97 1013.3
20220924083544 52 103 0.0 2.0 0.00 0.01 0.01 97 1013.3
20220924083042 52 106 1.0 2.0 0.00 0.01 0.01 97 1013.4
20220924082541 52 94 1.0 3.0 0.00 0.01 0.01 97 1013.7
20220924082041 52 104 0.0 1.0 0.00 0.01 0.01 97 1013.7
20220924081541 52 92 0.0 1.0 0.00 0.01 0.01 97 1013.8
20220924081041 52 108 0.0 1.0 0.00 0.01 0.01 97 1013.8
20220924080539 52 100 0.0 1.0 0.00 0.01 0.01 97 1014.1
20220924080039 52 92 0.0 1.0 0.00 0.01 0.01 97 1014.1
20220924075538 52 69 1.0 2.0 0.00 0.01 0.01 97 1014.0
20220924075036 52 67 1.0 2.0 0.00 0.01 0.01 97 1014.3
20220924074535 52 103 0.0 3.0 0.07 0.01 0.01 96 1014.4
20220924074034 52 92 1.0 1.0 0.07 0.01 0.01 96 1014.6
20220924073532 52 109 1.0 2.0 0.00 0.00 0.00 96 1014.8
20220924073032 52 87 0.0 0.0 0.00 0.00 0.00 96 1014.7
20220924072530 52 129 0.0 2.0 0.00 0.00 0.00 96 1014.7
20220924072030 52 64 0.0 3.0 0.00 0.00 0.00 96 1014.8
20220924071528 52 119 1.0 1.0 0.00 0.00 0.00 96 1014.8
20220924071026 52 93 0.0 1.0 0.00 0.00 0.00 95 1014.8
20220924070524 52 91 0.0 2.0 0.00 0.00 0.00 95 1015.0
20220924070022 52 108 1.0 3.0 0.00 0.00 0.00 95 1015.2
20220924065521 52 267 3.0 5.0 0.00 0.00 0.00 95 1015.1
20220924065020 53 214 2.0 3.0 0.00 0.00 0.00 94 1015.1
20220924064518 53 173 2.0 2.0 0.00 0.00 0.00 94 1015.2
20220924064016 53 151 1.0 3.0 0.00 0.00 0.00 93 1015.3
20220924063515 53 183 2.0 2.0 0.00 0.00 0.00 92 1015.4
20220924063013 53 114 1.0 2.0 0.00 0.00 0.00 91 1015.2
20220924062512 53 122 1.0 5.0 0.00 0.00 0.00 90 1015.5
20220924062011 53 121 1.0 3.0 0.00 0.00 0.00 89 1015.5
20220924061510 53 99 1.0 3.0 0.00 0.00 0.00 88 1015.5
20220924061009 53 25 2.0 6.0 0.00 0.00 0.00 88 1015.8
20220924060508 53 245 4.0 6.0 0.00 0.00 0.00 87 1015.6
20220924060006 54 277 3.0 5.0 0.00 0.00 0.00 85 1015.6
20220924055505 54 154 1.0 2.0 0.00 0.00 0.00 85 1015.9
20220924055004 54 97 0.0 0.0 0.00 0.00 0.00 85 1016.0
20220924054502 54 113 1.0 1.0 0.00 0.00 0.00 85 1016.1
20220924054000 54 97 0.0 2.0 0.00 0.00 0.00 84 1016.3
20220924053458 55 293 1.0 2.0 0.00 0.00 0.00 83 1016.3
20220924052958 55 126 1.0 1.0 0.00 0.00 0.00 82 1016.1
20220924052457 55 272 1.0 2.0 0.00 0.00 0.00 80 1016.0
20220924051954 56 340 1.0 2.0 0.00 0.00 0.00 76 1016.1
20220924051452 56 159 1.0 2.0 0.00 0.00 0.00 74 1016.1
20220924050951 56 191 2.0 2.0 0.00 0.00 0.00 73 1016.2
20220924050450 56 150 0.0 1.0 0.00 0.00 0.00 73 1016.1
20220924045950 56 115 0.0 1.0 0.00 0.00 0.00 73 1016.2
20220924045448 56 231 2.0 2.0 0.00 0.00 0.00 72 1016.2
20220924044947 57 176 2.0 2.0 0.00 0.00 0.00 72 1016.3
20220924044446 57 193 2.0 3.0 0.00 0.00 0.00 71 1016.2
20220924043944 57 338 2.0 2.0 0.00 0.00 0.00 71 1016.3
20220924043444 57 165 2.0 3.0 0.00 0.00 0.00 70 1016.4
20220924042943 57 72 0.0 1.0 0.00 0.00 0.00 70 1016.3
20220924042442 57 110 0.0 1.0 0.00 0.00 0.00 69 1016.2
20220924041940 57 260 0.0 1.0 0.00 0.00 0.00 69 1016.4
20220924041440 57 97 0.0 3.0 0.00 0.00 0.00 68 1016.2
20220924040939 57 103 0.0 1.0 0.00 0.00 0.00 69 1016.3
20220924040438 57 119 0.0 1.0 0.00 0.00 0.00 68 1016.2
20220924035937 57 112 0.0 1.0 0.00 0.00 0.00 68 1016.2
20220924035436 57 75 0.0 1.0 0.00 0.00 0.00 68 1016.2
20220924034935 57 97 1.0 1.0 0.00 0.00 0.00 67 1016.0
20220924034433 57 101 0.0 1.0 0.00 0.00 0.00 67 1016.2
20220924033932 57 94 0.0 0.0 0.00 0.00 0.00 68 1016.3
20220924033433 57 108 0.0 1.0 0.00 0.00 0.00 67 1016.3
20220924032932 57 97 0.0 1.0 0.00 0.00 0.00 67 1016.3
20220924032432 57 104 0.0 0.0 0.00 0.00 0.00 67 1016.4
20220924031931 57 134 0.0 1.0 0.00 0.00 0.00 67 1016.3
20220924031429 57 109 0.0 0.0 0.00 0.00 0.00 67 1016.3
20220924030927 57 108 0.0 0.0 0.00 0.00 0.00 67 1016.5
20220924030427 57 103 0.0 0.0 0.00 0.00 0.00 67 1016.4
20220924025925 57 104 0.0 0.0 0.00 0.00 0.00 67 1016.6
20220924025424 57 97 0.0 0.0 0.00 0.00 0.00 67 1016.5
20220924024922 57 98 0.0 0.0 0.00 0.00 0.00 66 1016.7
20220924024420 57 98 0.0 0.0 0.00 0.00 0.00 66 1016.5
20220924023921 57 98 0.0 0.0 0.00 0.00 0.00 66 1016.7
20220924023419 57 98 0.0 0.0 0.00 0.00 0.00 65 1016.4
20220924022919 57 98 0.0 0.0 0.00 0.00 0.00 64 1016.4
20220924022419 57 99 0.0 0.0 0.00 0.00 0.00 63 1016.4
20220924021918 57 119 0.0 1.0 0.00 0.00 0.00 62 1016.4
20220924021414 57 87 0.0 1.0 0.00 0.00 0.00 63 1016.3
20220924020914 57 90 0.0 1.0 0.00 0.00 0.00 63 1016.5
20220924020412 57 107 0.0 1.0 0.00 0.00 0.00 62 1016.3
20220924015911 57 88 0.0 0.0 0.00 0.00 0.00 63 1016.4
20220924015409 57 93 0.0 1.0 0.00 0.00 0.00 62 1016.7
20220924014907 57 69 0.0 0.0 0.00 0.00 0.00 62 1016.9
20220924014407 57 83 0.0 1.0 0.00 0.00 0.00 62 1016.8
20220924013906 57 94 0.0 1.0 0.00 0.00 0.00 62 1017.0
20220924013405 57 145 1.0 2.0 0.00 0.00 0.00 62 1016.6
20220924012905 57 198 1.0 5.0 0.00 0.00 0.00 61 1017.0
20220924012404 57 168 1.0 3.0 0.00 0.00 0.00 61 1016.7
20220924011904 57 112 0.0 2.0 0.00 0.00 0.00 60 1016.2
20220924011404 58 104 1.0 2.0 0.00 0.00 0.00 60 1016.3
20220924010903 58 131 0.0 1.0 0.00 0.00 0.00 60 1016.5
20220924010403 58 122 1.0 1.0 0.00 0.00 0.00 60 1016.3
20220924005901 58 81 0.0 0.0 0.00 0.00 0.00 60 1016.5
20220924005400 58 76 1.0 1.0 0.00 0.00 0.00 60 1016.3
20220924004900 58 93 0.0 1.0 0.00 0.00 0.00 60 1016.2
20220924004400 58 106 0.0 1.0 0.00 0.00 0.00 60 1016.4
20220924003858 58 163 1.0 1.0 0.00 0.00 0.00 59 1016.6
20220924003356 58 95 0.0 0.0 0.00 0.00 0.00 59 1016.4
20220924002855 58 177 1.0 1.0 0.00 0.00 0.00 59 1016.9
20220924002355 58 184 1.0 2.0 0.00 0.00 0.00 58 1016.7
20220924001854 58 76 0.0 1.0 0.00 0.00 0.00 58 1016.8
20220924001353 58 119 1.0 1.0 0.00 0.00 0.00 57 1017.0
20220924000853 58 33 1.0 1.0 0.00 0.00 0.00 57 1016.7
20220924000352 58 105 0.0 2.0 0.00 0.00 0.00 56 1017.2
20220923235850 58 285 2.0 2.0 0.00 0.00 0.00 56 1016.7
20220923235350 58 119 1.0 1.0 0.00 0.00 0.00 57 1016.8
20220923234850 58 105 0.0 1.0 0.00 0.00 0.00 57 1016.5
20220923234348 58 176 2.0 2.0 0.00 0.00 0.00 57 1016.6
20220923233846 58 123 0.0 2.0 0.00 0.00 0.00 57 1016.3
20220923233345 58 70 0.0 1.0 0.00 0.00 0.00 58 1016.5
20220923232843 58 136 0.0 1.0 0.00 0.00 0.00 57 1016.5
20220923232341 58 80 0.0 1.0 0.00 0.00 0.00 57 1016.5
20220923231839 59 97 0.0 1.0 0.00 0.00 0.00 56 1016.8
20220923231339 59 112 1.0 2.0 0.00 0.00 0.00 56 1016.9
20220923230838 59 70 0.0 1.0 0.00 0.00 0.00 56 1016.7
20220923230338 59 104 1.0 1.0 0.00 0.00 0.00 57 1016.4
20220923225838 59 103 1.0 1.0 0.00 0.00 0.00 56 1016.6
20220923225337 59 80 2.0 3.0 0.00 0.00 0.00 55 1016.9
20220923224837 59 108 2.0 2.0 0.00 0.00 0.00 56 1017.2
20220923224337 59 152 1.0 5.0 0.00 0.00 0.00 57 1017.2
20220923223835 59 94 0.0 1.0 0.00 0.00 0.00 59 1017.3
20220923223334 59 101 0.0 1.0 0.00 0.00 0.00 59 1017.3
20220923222832 59 174 1.0 2.0 0.00 0.00 0.00 58 1017.4
20220923222333 59 72 1.0 2.0 0.00 0.00 0.00 58 1017.3
20220923221832 59 108 0.0 1.0 0.00 0.00 0.00 58 1017.4
20220923221331 59 95 0.0 1.0 0.00 0.00 0.00 58 1017.6
20220923220831 59 82 0.0 2.0 0.00 0.00 0.00 59 1017.7
20220923220329 59 100 0.0 0.0 0.00 0.00 0.00 57 1017.9
20220923215828 59 94 0.0 1.0 0.00 0.00 0.00 56 1017.7
20220923215328 59 100 0.0 2.0 0.00 0.00 0.00 57 1018.3
20220923214828 60 101 0.0 1.0 0.00 0.00 0.00 59 1018.3
20220923214327 60 113 0.0 1.0 0.00 0.00 0.00 58 1018.2
20220923213826 60 77 0.0 0.0 0.00 0.00 0.00 58 1018.5
20220923213325 60 102 1.0 1.0 0.00 0.00 0.00 57 1018.8
20220923212823 60 107 0.0 1.0 0.00 0.00 0.00 57 1019.1
20220923212322 60 64 0.0 1.0 0.00 0.00 0.00 59 1019.4
20220923211821 60 130 0.0 1.0 0.00 0.00 0.00 58 1019.2
20220923211321 60 87 0.0 0.0 0.00 0.00 0.00 62 1018.9
20220923210819 60 134 0.0 0.0 0.00 0.00 0.00 57 1019.4
20220923210317 60 111 0.0 0.0 0.00 0.00 0.00 58 1019.5
20220923205815 60 93 0.0 1.0 0.00 0.00 0.00 58 1019.3
20220923205315 60 101 0.0 1.0 0.00 0.00 0.00 58 1019.4
20220923204814 60 58 0.0 1.0 0.00 0.00 0.00 56 1019.5
20220923204313 59 108 0.0 1.0 0.00 0.00 0.00 57 1019.8
20220923203813 59 107 0.0 2.0 0.00 0.00 0.00 58 1020.1
20220923203311 59 301 1.0 5.0 0.00 0.00 0.00 57 1020.1
20220923202810 60 268 1.0 2.0 0.00 0.00 0.00 56 1020.3
20220923202308 60 142 1.0 1.0 0.00 0.00 0.00 57 1020.1
20220923201808 61 85 0.0 0.0 0.00 0.00 0.00 56 1020.1
20220923201308 61 90 0.0 1.0 0.00 0.00 0.00 57 1019.8
20220923200806 62 88 1.0 1.0 0.00 0.00 0.00 57 1019.8
20220923200306 62 88 0.0 0.0 0.00 0.00 0.00 57 1019.7
20220923195806 62 85 1.0 1.0 0.00 0.00 0.00 57 1019.8
20220923195306 61 81 0.0 1.0 0.00 0.00 0.00 57 1019.9
20220923194804 60 184 3.0 3.0 0.00 0.00 0.00 55 1019.9
20220923194304 60 279 2.0 2.0 0.00 0.00 0.00 57 1020.1
20220923193802 60 75 1.0 2.0 0.00 0.00 0.00 59 1019.9
20220923193301 60 78 1.0 2.0 0.00 0.00 0.00 59 1019.8
20220923192759 60 90 0.0 1.0 0.00 0.00 0.00 59 1019.9
20220923192257 60 122 0.0 1.0 0.00 0.00 0.00 59 1020.0
20220923191757 60 30 2.0 2.0 0.00 0.00 0.00 58 1020.2
20220923191255 59 98 0.0 1.0 0.00 0.00 0.00 60 1020.0
20220923190755 59 132 1.0 3.0 0.00 0.00 0.00 63 1020.0
20220923190254 59 112 0.0 3.0 0.00 0.00 0.00 63 1020.0
20220923185754 59 109 1.0 2.0 0.00 0.00 0.00 62 1019.9
20220923185253 59 90 0.0 3.0 0.00 0.00 0.00 63 1020.4
20220923184753 59 73 0.0 1.0 0.00 0.00 0.00 62 1020.6
20220923184252 59 71 0.0 1.0 0.00 0.00 0.00 60 1020.8
20220923183750 59 161 2.0 2.0 0.00 0.00 0.00 60 1020.7